createdAt,value
2017-10-15T00:00:50.209Z,15.5
2017-10-15T00:01:51.599Z,15.4
2017-10-15T00:02:52.988Z,15.4
2017-10-15T00:03:54.382Z,15.5
2017-10-15T00:04:55.775Z,15.5
2017-10-15T00:05:57.162Z,15.4
2017-10-15T00:06:58.551Z,15.4
2017-10-15T00:07:59.942Z,15.4
2017-10-15T00:09:01.330Z,15.3
2017-10-15T00:10:02.722Z,15.3
2017-10-15T00:11:04.110Z,15.4
2017-10-15T00:12:05.503Z,15.3
2017-10-15T00:13:06.890Z,15.4
2017-10-15T00:14:08.280Z,15.4
2017-10-15T00:15:09.668Z,15.4
2017-10-15T00:16:11.060Z,15.4
2017-10-15T00:17:12.453Z,15.4
2017-10-15T00:18:13.845Z,15.4
2017-10-15T00:19:15.235Z,15.5
2017-10-15T00:20:16.625Z,15.4
2017-10-15T00:21:18.016Z,15.4
2017-10-15T00:22:19.406Z,15.3
2017-10-15T00:23:20.797Z,15.4
2017-10-15T00:24:22.188Z,15.3
2017-10-15T00:25:23.581Z,15.4
2017-10-15T00:26:24.971Z,15.4
2017-10-15T00:27:26.362Z,15.4
2017-10-15T00:28:27.752Z,15.4
2017-10-15T00:29:29.139Z,15.4
2017-10-15T00:30:30.531Z,15.5
2017-10-15T00:31:31.917Z,15.4
2017-10-15T00:32:33.311Z,15.4
2017-10-15T00:33:34.701Z,15.4
2017-10-15T00:34:36.089Z,15.4
2017-10-15T00:35:37.480Z,15.4
2017-10-15T00:36:38.869Z,15.5
2017-10-15T00:37:40.259Z,15.5
2017-10-15T00:38:41.651Z,15.5
2017-10-15T00:39:43.044Z,15.6
2017-10-15T00:40:44.435Z,15.4
2017-10-15T00:41:45.835Z,15.4
2017-10-15T00:42:47.210Z,15.5
2017-10-15T00:43:48.601Z,15.5
2017-10-15T00:44:49.993Z,15.5
2017-10-15T00:45:51.386Z,15.5
2017-10-15T00:46:52.776Z,15.4
2017-10-15T00:47:54.168Z,15.5
2017-10-15T00:48:55.557Z,15.5
2017-10-15T00:49:56.949Z,15.5
2017-10-15T00:50:58.340Z,15.4
2017-10-15T00:51:59.729Z,15.4
2017-10-15T00:53:01.119Z,15.4
2017-10-15T00:54:02.509Z,15.4
2017-10-15T00:55:03.899Z,15.4
2017-10-15T00:56:05.290Z,15.4
2017-10-15T00:57:06.677Z,15.4
2017-10-15T00:58:08.068Z,15.3
2017-10-15T00:59:09.458Z,15.4
2017-10-15T01:00:10.851Z,15.4
2017-10-15T01:01:12.244Z,15.4
2017-10-15T01:02:13.633Z,15.3
2017-10-15T01:03:15.023Z,15.4
2017-10-15T01:04:16.426Z,15.3
2017-10-15T01:05:17.799Z,15.4
2017-10-15T01:06:19.191Z,15.3
2017-10-15T01:07:20.578Z,15.3
2017-10-15T01:08:21.971Z,15.2
2017-10-15T01:09:23.360Z,15.1
2017-10-15T01:10:24.747Z,15.1
2017-10-15T01:11:26.138Z,15.0
2017-10-15T01:12:27.530Z,15.0
2017-10-15T01:13:28.922Z,15.0
2017-10-15T01:14:30.315Z,14.8
2017-10-15T01:15:31.709Z,14.9
2017-10-15T01:16:33.099Z,14.8
2017-10-15T01:17:34.488Z,14.8
2017-10-15T01:18:35.875Z,14.7
2017-10-15T01:19:37.264Z,14.7
2017-10-15T01:20:38.656Z,14.7
2017-10-15T01:21:40.046Z,14.7
2017-10-15T01:22:41.435Z,14.7
2017-10-15T01:23:42.828Z,14.6
2017-10-15T01:24:44.215Z,14.6
2017-10-15T01:25:45.603Z,14.6
2017-10-15T01:26:46.995Z,14.6
2017-10-15T01:27:48.384Z,14.6
2017-10-15T01:28:49.777Z,14.5
2017-10-15T01:29:51.183Z,14.5
2017-10-15T01:30:52.556Z,14.4
2017-10-15T01:31:53.947Z,14.5
2017-10-15T01:32:55.335Z,14.4
2017-10-15T01:33:56.727Z,14.4
2017-10-15T01:34:58.125Z,14.5
2017-10-15T01:35:59.507Z,14.5
2017-10-15T01:37:00.898Z,14.5
2017-10-15T01:38:02.290Z,14.5
2017-10-15T01:39:03.678Z,14.4
2017-10-15T01:40:05.066Z,14.5
2017-10-15T01:41:06.454Z,14.4
2017-10-15T01:42:07.845Z,14.5
2017-10-15T01:43:09.238Z,14.6
2017-10-15T01:44:10.629Z,14.5
2017-10-15T01:45:12.018Z,14.6
2017-10-15T01:46:13.409Z,14.7
2017-10-15T01:47:14.801Z,14.7
2017-10-15T01:48:16.187Z,14.7
2017-10-15T01:49:17.578Z,14.7
2017-10-15T01:50:18.969Z,14.7
2017-10-15T01:51:20.360Z,14.7
2017-10-15T01:52:21.756Z,14.7
2017-10-15T01:53:23.144Z,14.8
2017-10-15T01:54:24.532Z,14.8
2017-10-15T01:55:25.920Z,14.8
2017-10-15T01:56:27.312Z,14.9
2017-10-15T01:57:28.705Z,14.8
2017-10-15T01:58:30.099Z,14.9
2017-10-15T01:59:31.486Z,14.9
2017-10-15T02:00:32.874Z,14.9
2017-10-15T02:01:34.266Z,15.0
2017-10-15T02:02:35.653Z,14.9
2017-10-15T02:03:37.042Z,14.9
2017-10-15T02:04:38.432Z,14.9
2017-10-15T02:05:39.825Z,15.0
2017-10-15T02:06:41.219Z,14.9
2017-10-15T02:07:42.609Z,15.0
2017-10-15T02:08:43.994Z,15.0
2017-10-15T02:09:45.384Z,15.0
2017-10-15T02:10:46.775Z,15.1
2017-10-15T02:11:48.166Z,15.1
2017-10-15T02:12:49.559Z,15.1
2017-10-15T02:13:50.951Z,15.0
2017-10-15T02:14:52.340Z,15.0
2017-10-15T02:15:53.731Z,15.0
2017-10-15T02:16:55.120Z,15.1
2017-10-15T02:17:56.512Z,15.0
2017-10-15T02:18:57.903Z,15.1
2017-10-15T02:19:59.293Z,15.1
2017-10-15T02:21:00.688Z,15.1
2017-10-15T02:22:02.076Z,15.1
2017-10-15T02:23:03.462Z,15.1
2017-10-15T02:24:04.853Z,15.1
2017-10-15T02:25:06.244Z,15.1
2017-10-15T02:26:07.635Z,15.1
2017-10-15T02:27:09.024Z,15.1
2017-10-15T02:28:10.414Z,15.1
2017-10-15T02:29:11.802Z,15.1
2017-10-15T02:30:13.193Z,15.1
2017-10-15T02:31:14.583Z,15.1
2017-10-15T02:32:15.974Z,15.1
2017-10-15T02:33:17.361Z,15.1
2017-10-15T02:34:18.752Z,15.1
2017-10-15T02:35:20.146Z,15.1
2017-10-15T02:36:21.534Z,15.1
2017-10-15T02:37:22.922Z,15.1
2017-10-15T02:38:24.309Z,15.1
2017-10-15T02:39:25.701Z,15.1
2017-10-15T02:40:27.093Z,15.1
2017-10-15T02:41:28.486Z,15.0
2017-10-15T02:42:29.883Z,15.1
2017-10-15T02:43:31.265Z,15.1
2017-10-15T02:44:32.660Z,15.2
2017-10-15T02:45:34.043Z,15.1
2017-10-15T02:46:35.440Z,15.1
2017-10-15T02:47:36.825Z,15.1
2017-10-15T02:48:38.218Z,15.0
2017-10-15T02:49:39.611Z,15.1
2017-10-15T02:50:40.994Z,15.1
2017-10-15T02:51:42.385Z,15.1
2017-10-15T02:52:43.775Z,15.0
2017-10-15T02:53:45.163Z,15.0
2017-10-15T02:54:46.554Z,15.0
2017-10-15T02:55:47.945Z,15.0
2017-10-15T02:56:49.344Z,15.0
2017-10-15T02:57:50.730Z,14.9
2017-10-15T02:58:52.116Z,15.0
2017-10-15T02:59:53.505Z,15.0
2017-10-15T03:00:54.895Z,15.0
2017-10-15T03:01:56.289Z,15.0
2017-10-15T03:02:57.679Z,15.0
2017-10-15T03:03:59.117Z,14.9
2017-10-15T03:05:00.513Z,14.9
2017-10-15T03:06:01.896Z,14.9
2017-10-15T03:07:03.290Z,14.9
2017-10-15T03:08:04.676Z,14.9
2017-10-15T03:09:06.078Z,14.9
2017-10-15T03:10:07.459Z,14.9
2017-10-15T03:11:08.851Z,14.9
2017-10-15T03:12:10.238Z,14.9
2017-10-15T03:13:11.625Z,14.9
2017-10-15T03:14:13.015Z,14.8
2017-10-15T03:15:14.407Z,14.9
2017-10-15T03:16:15.794Z,14.8
2017-10-15T03:17:17.186Z,14.8
2017-10-15T03:18:18.579Z,14.8
2017-10-15T03:19:19.965Z,14.8
2017-10-15T03:20:21.357Z,14.8
2017-10-15T03:21:22.749Z,14.8
2017-10-15T03:22:24.143Z,14.8
2017-10-15T03:23:25.527Z,14.8
2017-10-15T03:24:26.922Z,14.8
2017-10-15T03:25:28.312Z,14.8
2017-10-15T03:26:29.703Z,14.8
2017-10-15T03:27:31.092Z,14.9
2017-10-15T03:28:32.480Z,14.8
2017-10-15T03:29:33.871Z,14.8
2017-10-15T03:30:35.263Z,14.8
2017-10-15T03:31:36.653Z,14.8
2017-10-15T03:32:38.046Z,14.8
2017-10-15T03:33:39.435Z,14.8
2017-10-15T03:34:40.823Z,14.8
2017-10-15T03:35:42.213Z,14.8
2017-10-15T03:36:43.605Z,14.8
2017-10-15T03:37:44.995Z,14.8
2017-10-15T03:38:46.389Z,14.8
2017-10-15T03:39:47.779Z,14.8
2017-10-15T03:40:49.167Z,14.8
2017-10-15T03:41:50.558Z,14.7
2017-10-15T03:42:51.946Z,14.7
2017-10-15T03:43:53.336Z,14.8
2017-10-15T03:44:54.726Z,14.7
2017-10-15T03:45:56.120Z,14.7
2017-10-15T03:46:57.522Z,14.8
2017-10-15T03:47:58.905Z,14.7
2017-10-15T03:49:00.292Z,14.7
2017-10-15T03:50:01.680Z,14.7
2017-10-15T03:51:03.071Z,14.7
2017-10-15T03:52:04.463Z,14.7
2017-10-15T03:53:05.853Z,14.7
2017-10-15T03:54:07.245Z,14.7
2017-10-15T03:55:08.633Z,14.7
2017-10-15T03:56:10.022Z,14.5
2017-10-15T03:57:11.412Z,14.6
2017-10-15T03:58:12.804Z,14.6
2017-10-15T03:59:14.194Z,14.6
2017-10-15T04:00:15.588Z,14.6
2017-10-15T04:01:16.977Z,14.6
2017-10-15T04:02:18.369Z,14.5
2017-10-15T04:03:19.756Z,14.6
2017-10-15T04:04:21.146Z,14.5
2017-10-15T04:05:22.537Z,14.5
2017-10-15T04:06:23.930Z,14.5
2017-10-15T04:07:25.319Z,14.5
2017-10-15T04:08:26.710Z,14.4
2017-10-15T04:09:28.098Z,14.5
2017-10-15T04:10:29.488Z,14.3
2017-10-15T04:11:30.876Z,14.3
2017-10-15T04:12:32.270Z,14.4
2017-10-15T04:13:33.657Z,14.4
2017-10-15T04:14:35.049Z,14.4
2017-10-15T04:15:36.441Z,14.3
2017-10-15T04:16:37.829Z,14.4
2017-10-15T04:17:39.218Z,14.4
2017-10-15T04:18:40.606Z,14.4
2017-10-15T04:19:41.997Z,14.4
2017-10-15T04:20:43.389Z,14.4
2017-10-15T04:21:44.780Z,14.4
2017-10-15T04:22:46.167Z,14.4
2017-10-15T04:23:47.557Z,14.4
2017-10-15T04:24:48.945Z,14.4
2017-10-15T04:25:50.337Z,14.4
2017-10-15T04:26:51.726Z,14.3
2017-10-15T04:27:53.116Z,14.3
2017-10-15T04:28:54.503Z,14.3
2017-10-15T04:29:55.895Z,14.3
2017-10-15T04:30:57.285Z,14.3
2017-10-15T04:31:58.672Z,14.2
2017-10-15T04:33:00.059Z,14.4
2017-10-15T04:34:01.450Z,14.3
2017-10-15T04:35:02.840Z,14.2
2017-10-15T04:36:04.230Z,14.3
2017-10-15T04:37:05.619Z,14.3
2017-10-15T04:38:07.008Z,14.3
2017-10-15T04:39:08.402Z,14.3
2017-10-15T04:40:09.787Z,14.3
2017-10-15T04:41:11.184Z,14.3
2017-10-15T04:42:12.567Z,14.3
2017-10-15T04:43:13.993Z,14.3
2017-10-15T04:44:15.384Z,14.3
2017-10-15T04:45:16.775Z,14.3
2017-10-15T04:46:18.160Z,14.3
2017-10-15T04:47:19.548Z,14.3
2017-10-15T04:48:20.940Z,14.3
2017-10-15T04:49:22.331Z,14.3
2017-10-15T04:50:23.724Z,14.3
2017-10-15T04:51:25.113Z,14.3
2017-10-15T04:52:26.502Z,14.2
2017-10-15T04:53:27.894Z,14.2
2017-10-15T04:54:29.282Z,14.2
2017-10-15T04:55:30.675Z,14.2
2017-10-15T04:56:32.063Z,14.3
2017-10-15T04:57:33.454Z,14.3
2017-10-15T04:58:34.847Z,14.2
2017-10-15T04:59:36.230Z,14.2
2017-10-15T05:00:37.618Z,14.2
2017-10-15T05:01:39.006Z,14.3
2017-10-15T05:02:40.393Z,14.3
2017-10-15T05:03:41.785Z,14.1
2017-10-15T05:04:43.177Z,14.2
2017-10-15T05:05:44.570Z,14.2
2017-10-15T05:06:45.956Z,14.2
2017-10-15T05:07:47.346Z,14.2
2017-10-15T05:08:48.735Z,14.3
2017-10-15T05:09:50.123Z,14.2
2017-10-15T05:10:51.515Z,14.3
2017-10-15T05:11:52.905Z,14.2
2017-10-15T05:12:54.296Z,14.3
2017-10-15T05:13:55.684Z,14.3
2017-10-15T05:14:57.094Z,14.2
2017-10-15T05:15:58.460Z,14.2
2017-10-15T05:16:59.851Z,14.1
2017-10-15T05:18:01.241Z,14.2
2017-10-15T05:19:02.633Z,14.1
2017-10-15T05:20:04.031Z,14.2
2017-10-15T05:21:05.415Z,14.2
2017-10-15T05:22:06.808Z,14.2
2017-10-15T05:23:08.194Z,14.1
2017-10-15T05:24:09.584Z,14.1
2017-10-15T05:25:10.975Z,14.2
2017-10-15T05:26:12.365Z,14.1
2017-10-15T05:27:13.756Z,14.1
2017-10-15T05:28:15.142Z,14.0
2017-10-15T05:29:16.535Z,14.0
2017-10-15T05:30:17.925Z,14.0
2017-10-15T05:31:19.316Z,14.0
2017-10-15T05:32:20.709Z,14.0
2017-10-15T05:33:22.095Z,14.0
2017-10-15T05:34:23.487Z,14.0
2017-10-15T05:35:24.873Z,14.0
2017-10-15T05:36:26.262Z,14.0
2017-10-15T05:37:27.651Z,14.0
2017-10-15T05:38:29.042Z,14.0
2017-10-15T05:39:30.431Z,13.9
2017-10-15T05:40:31.830Z,14.0
2017-10-15T05:41:33.213Z,13.9
2017-10-15T05:42:34.602Z,13.9
2017-10-15T05:43:35.990Z,14.0
2017-10-15T05:44:37.380Z,13.9
2017-10-15T05:45:38.771Z,13.9
2017-10-15T05:46:40.164Z,13.9
2017-10-15T05:47:41.555Z,14.0
2017-10-15T05:48:42.948Z,14.0
2017-10-15T05:49:44.338Z,13.9
2017-10-15T05:50:45.728Z,14.0
2017-10-15T05:51:47.119Z,13.9
2017-10-15T05:52:48.509Z,13.9
2017-10-15T05:53:49.899Z,13.9
2017-10-15T05:54:51.290Z,13.9
2017-10-15T05:55:52.684Z,13.9
2017-10-15T05:56:54.072Z,13.9
2017-10-15T05:57:55.462Z,13.9
2017-10-15T05:58:56.855Z,13.9
2017-10-15T05:59:58.247Z,13.9
2017-10-15T06:00:59.639Z,13.8
2017-10-15T06:02:01.034Z,13.8
2017-10-15T06:03:02.427Z,13.9
2017-10-15T06:04:03.819Z,13.8
2017-10-15T06:05:05.212Z,13.9
2017-10-15T06:06:06.600Z,13.8
2017-10-15T06:07:07.992Z,13.8
2017-10-15T06:08:09.388Z,13.8
2017-10-15T06:09:10.781Z,13.8
2017-10-15T06:10:12.173Z,13.9
2017-10-15T06:11:13.566Z,13.8
2017-10-15T06:12:14.956Z,13.9
2017-10-15T06:13:16.350Z,13.8
2017-10-15T06:14:17.740Z,13.8
2017-10-15T06:15:19.143Z,13.8
2017-10-15T06:16:20.526Z,13.8
2017-10-15T06:17:21.927Z,13.8
2017-10-15T06:18:23.314Z,13.8
2017-10-15T06:19:24.712Z,13.8
2017-10-15T06:20:26.103Z,13.9
2017-10-15T06:21:27.499Z,13.9
2017-10-15T06:22:28.940Z,14.0
2017-10-15T06:23:30.332Z,13.9
2017-10-15T06:24:31.724Z,13.9
2017-10-15T06:25:33.115Z,13.9
2017-10-15T06:26:34.507Z,13.9
2017-10-15T06:27:35.899Z,14.0
2017-10-15T06:28:37.292Z,13.9
2017-10-15T06:29:38.683Z,14.0
2017-10-15T06:30:40.088Z,14.0
2017-10-15T06:31:41.479Z,14.0
2017-10-15T06:32:42.870Z,13.9
2017-10-15T06:33:44.338Z,13.9
2017-10-15T06:34:45.729Z,13.9
2017-10-15T06:35:47.127Z,13.9
2017-10-15T06:36:48.523Z,14.1
2017-10-15T06:37:49.919Z,14.0
2017-10-15T06:38:51.313Z,14.0
2017-10-15T06:39:52.701Z,14.0
2017-10-15T06:40:54.099Z,14.1
2017-10-15T06:41:55.495Z,14.0
2017-10-15T06:42:56.887Z,14.0
2017-10-15T06:43:58.280Z,14.0
2017-10-15T06:44:59.675Z,14.0
2017-10-15T06:46:01.074Z,14.0
2017-10-15T06:47:02.461Z,14.0
2017-10-15T06:48:03.855Z,14.1
2017-10-15T06:49:05.246Z,14.0
2017-10-15T06:50:06.637Z,14.1
2017-10-15T06:51:08.035Z,14.2
2017-10-15T06:52:09.433Z,14.1
2017-10-15T06:53:10.823Z,14.2
2017-10-15T06:54:12.215Z,14.2
2017-10-15T06:55:13.609Z,14.2
2017-10-15T06:56:15.008Z,14.2
2017-10-15T06:57:16.401Z,14.2
2017-10-15T06:58:17.798Z,14.3
2017-10-15T06:59:19.189Z,14.3
2017-10-15T07:00:20.585Z,14.3
2017-10-15T07:01:21.982Z,14.3
2017-10-15T07:02:23.375Z,14.3
2017-10-15T07:03:24.765Z,14.4
2017-10-15T07:04:26.158Z,14.4
2017-10-15T07:05:27.553Z,14.4
2017-10-15T07:06:28.947Z,14.3
2017-10-15T07:07:30.341Z,14.4
2017-10-15T07:08:31.735Z,14.5
2017-10-15T07:09:33.122Z,14.4
2017-10-15T07:10:34.513Z,14.5
2017-10-15T07:11:35.911Z,14.6
2017-10-15T07:12:37.316Z,14.5
2017-10-15T07:13:38.716Z,14.6
2017-10-15T07:14:40.195Z,14.7
2017-10-15T07:15:41.586Z,14.8
2017-10-15T07:16:42.976Z,14.7
2017-10-15T07:17:44.369Z,14.8
2017-10-15T07:18:45.765Z,14.8
2017-10-15T07:19:47.163Z,14.9
2017-10-15T07:20:48.553Z,15.0
2017-10-15T07:21:49.949Z,15.0
2017-10-15T07:22:51.338Z,15.0
2017-10-15T07:23:52.732Z,15.1
2017-10-15T07:24:54.125Z,15.1
2017-10-15T07:25:55.523Z,15.2
2017-10-15T07:26:56.921Z,15.1
2017-10-15T07:27:58.313Z,15.3
2017-10-15T07:28:59.725Z,15.3
2017-10-15T07:30:01.100Z,15.3
2017-10-15T07:31:02.493Z,15.4
2017-10-15T07:32:03.883Z,15.4
2017-10-15T07:33:05.278Z,15.5
2017-10-15T07:34:06.673Z,15.5
2017-10-15T07:35:08.068Z,15.6
2017-10-15T07:36:09.463Z,15.6
2017-10-15T07:37:10.854Z,15.7
2017-10-15T07:38:12.244Z,15.7
2017-10-15T07:39:13.640Z,15.7
2017-10-15T07:40:15.036Z,15.7
2017-10-15T07:41:16.431Z,15.8
2017-10-15T07:42:17.828Z,15.9
2017-10-15T07:43:19.223Z,15.9
2017-10-15T07:44:20.613Z,15.9
2017-10-15T07:45:22.007Z,15.9
2017-10-15T07:46:23.402Z,16.0
2017-10-15T07:47:24.796Z,16.0
2017-10-15T07:48:26.191Z,16.1
2017-10-15T07:49:27.588Z,16.1
2017-10-15T07:50:28.984Z,16.2
2017-10-15T07:51:30.378Z,16.2
2017-10-15T07:52:31.769Z,16.2
2017-10-15T07:53:33.165Z,16.2
2017-10-15T07:54:34.559Z,16.3
2017-10-15T07:55:35.953Z,16.3
2017-10-15T07:56:37.348Z,16.2
2017-10-15T07:57:38.742Z,16.4
2017-10-15T07:58:40.135Z,16.5
2017-10-15T07:59:41.531Z,16.5
2017-10-15T08:00:42.930Z,16.5
2017-10-15T08:01:44.321Z,16.6
2017-10-15T08:02:45.717Z,16.6
2017-10-15T08:03:47.108Z,16.7
2017-10-15T08:04:48.506Z,16.7
2017-10-15T08:05:49.898Z,16.8
2017-10-15T08:06:51.296Z,16.8
2017-10-15T08:07:52.688Z,16.8
2017-10-15T08:08:54.084Z,16.8
2017-10-15T08:09:55.479Z,16.9
2017-10-15T08:10:56.875Z,17.0
2017-10-15T08:11:58.271Z,17.0
2017-10-15T08:12:59.663Z,17.1
2017-10-15T08:14:01.063Z,17.1
2017-10-15T08:15:02.457Z,17.2
2017-10-15T08:16:03.865Z,17.3
2017-10-15T08:17:05.251Z,17.3
2017-10-15T08:18:06.665Z,17.4
2017-10-15T08:19:08.064Z,17.5
2017-10-15T08:20:09.462Z,17.4
2017-10-15T08:21:10.856Z,17.6
2017-10-15T08:22:12.251Z,17.6
2017-10-15T08:23:13.650Z,17.6
2017-10-15T08:24:15.041Z,17.7
2017-10-15T08:25:16.446Z,17.7
2017-10-15T08:26:19.373Z,17.8
2017-10-15T08:27:20.764Z,17.9
2017-10-15T08:28:23.142Z,18.0
2017-10-15T08:29:24.539Z,17.9
2017-10-15T08:30:25.937Z,18.0
2017-10-15T08:31:27.337Z,18.0
2017-10-15T08:32:28.734Z,18.1
2017-10-15T08:33:30.130Z,18.2
2017-10-15T08:34:31.555Z,18.3
2017-10-15T08:35:32.952Z,18.3
2017-10-15T08:36:34.348Z,18.4
2017-10-15T08:37:35.741Z,18.4
2017-10-15T08:38:37.137Z,18.4
2017-10-15T08:39:38.540Z,18.5
2017-10-15T08:40:39.938Z,18.5
2017-10-15T08:41:41.330Z,18.5
2017-10-15T08:42:42.729Z,18.6
2017-10-15T08:43:44.125Z,18.7
2017-10-15T08:44:45.524Z,18.9
2017-10-15T08:45:46.920Z,19.0
2017-10-15T08:46:48.316Z,19.0
2017-10-15T08:47:49.716Z,19.1
2017-10-15T08:48:51.110Z,19.2
2017-10-15T08:49:52.506Z,19.2
2017-10-15T08:50:53.902Z,19.3
2017-10-15T08:51:55.299Z,19.4
2017-10-15T08:52:56.694Z,19.4
2017-10-15T08:53:58.093Z,19.6
2017-10-15T08:54:59.490Z,19.7
2017-10-15T08:56:00.885Z,19.7
2017-10-15T08:57:02.288Z,19.8
2017-10-15T08:58:03.679Z,19.9
2017-10-15T08:59:05.081Z,20.1
2017-10-15T09:00:06.480Z,20.1
2017-10-15T09:01:07.873Z,20.1
2017-10-15T09:02:09.278Z,20.2
2017-10-15T09:03:10.666Z,20.3
2017-10-15T09:04:12.063Z,20.3
2017-10-15T09:05:13.461Z,20.5
2017-10-15T09:06:14.861Z,20.6
2017-10-15T09:07:16.260Z,20.5
2017-10-15T09:08:17.658Z,20.6
2017-10-15T09:09:19.056Z,20.7
2017-10-15T09:10:20.456Z,20.8
2017-10-15T09:11:21.807Z,20.8
2017-10-15T09:12:23.205Z,20.9
2017-10-15T09:13:24.602Z,21.0
2017-10-15T09:14:25.998Z,21.0
2017-10-15T09:15:27.401Z,21.1
2017-10-15T09:16:28.797Z,21.2
2017-10-15T09:17:30.195Z,21.3
2017-10-15T09:18:31.595Z,21.4
2017-10-15T09:19:32.994Z,21.5
2017-10-15T09:20:34.391Z,21.5
2017-10-15T09:21:35.794Z,22.0
2017-10-15T09:22:37.196Z,22.3
2017-10-15T09:23:38.594Z,22.6
2017-10-15T09:24:39.994Z,23.1
2017-10-15T09:25:41.397Z,23.5
2017-10-15T09:26:42.802Z,24.0
2017-10-15T09:27:44.208Z,24.5
2017-10-15T09:28:45.615Z,24.8
2017-10-15T09:29:47.009Z,25.2
2017-10-15T09:30:48.413Z,25.6
2017-10-15T09:31:49.813Z,25.9
2017-10-15T09:32:51.218Z,26.3
2017-10-15T09:33:52.617Z,26.6
2017-10-15T09:34:54.066Z,26.9
2017-10-15T09:35:55.468Z,27.2
2017-10-15T09:36:56.875Z,27.5
2017-10-15T09:37:58.286Z,27.8
2017-10-15T09:38:59.688Z,28.1
2017-10-15T09:40:01.091Z,28.5
2017-10-15T09:41:02.497Z,28.8
2017-10-15T09:42:03.905Z,29.2
2017-10-15T09:43:05.311Z,29.6
2017-10-15T09:44:06.718Z,30.0
2017-10-15T09:45:08.125Z,30.2
2017-10-15T09:46:09.534Z,30.3
2017-10-15T09:47:10.938Z,30.5
2017-10-15T09:48:12.341Z,30.8
2017-10-15T09:49:13.747Z,31.0
2017-10-15T09:50:15.157Z,31.3
2017-10-15T09:51:16.565Z,31.6
2017-10-15T09:52:17.975Z,31.8
2017-10-15T09:53:19.379Z,31.9
2017-10-15T09:54:20.785Z,32.1
2017-10-15T09:55:22.189Z,32.2
2017-10-15T09:56:23.600Z,32.2
2017-10-15T09:57:25.007Z,32.3
2017-10-15T09:58:26.414Z,32.6
2017-10-15T09:59:27.824Z,32.8
2017-10-15T10:00:29.237Z,33.0
2017-10-15T10:01:30.644Z,33.2
2017-10-15T10:02:32.051Z,33.4
2017-10-15T10:03:33.459Z,33.7
2017-10-15T10:04:34.888Z,34.1
2017-10-15T10:05:36.287Z,34.3
2017-10-15T10:06:37.699Z,34.4
2017-10-15T10:07:39.107Z,34.4
2017-10-15T10:08:40.513Z,34.8
2017-10-15T10:09:41.926Z,35.0
2017-10-15T10:10:43.333Z,35.2
2017-10-15T10:11:44.743Z,35.3
2017-10-15T10:12:46.155Z,35.5
2017-10-15T10:13:47.564Z,35.7
2017-10-15T10:14:48.972Z,35.6
2017-10-15T10:15:50.383Z,35.9
2017-10-15T10:16:51.791Z,36.1
2017-10-15T10:17:53.204Z,36.3
2017-10-15T10:18:54.617Z,36.4
2017-10-15T10:19:56.036Z,36.7
2017-10-15T10:20:57.487Z,36.8
2017-10-15T10:21:58.900Z,37.2
2017-10-15T10:23:00.310Z,37.3
2017-10-15T10:24:01.721Z,37.5
2017-10-15T10:25:03.139Z,37.5
2017-10-15T10:26:04.550Z,37.7
2017-10-15T10:27:05.964Z,37.5
2017-10-15T10:28:07.377Z,37.7
2017-10-15T10:29:08.787Z,37.9
2017-10-15T10:30:10.201Z,38.3
2017-10-15T10:31:11.610Z,38.5
2017-10-15T10:32:13.018Z,38.6
2017-10-15T10:33:14.431Z,38.7
2017-10-15T10:34:15.847Z,38.8
2017-10-15T10:35:17.256Z,38.8
2017-10-15T10:36:18.689Z,38.9
2017-10-15T10:37:20.080Z,39.0
2017-10-15T10:38:21.494Z,39.2
2017-10-15T10:39:22.907Z,39.3
2017-10-15T10:40:24.325Z,39.2
2017-10-15T10:41:25.732Z,39.2
2017-10-15T10:42:27.154Z,39.4
2017-10-15T10:43:28.571Z,39.6
2017-10-15T10:44:29.974Z,39.7
2017-10-15T10:45:31.385Z,39.8
2017-10-15T10:46:32.797Z,40.0
2017-10-15T10:47:34.215Z,39.4
2017-10-15T10:48:35.627Z,39.0
2017-10-15T10:49:37.039Z,39.4
2017-10-15T10:50:38.449Z,39.3
2017-10-15T10:51:39.864Z,39.4
2017-10-15T10:52:41.278Z,39.2
2017-10-15T10:53:42.688Z,38.9
2017-10-15T10:54:44.102Z,38.5
2017-10-15T10:55:45.513Z,38.3
2017-10-15T10:56:46.921Z,37.7
2017-10-15T10:57:48.329Z,37.4
2017-10-15T10:58:49.740Z,36.8
2017-10-15T10:59:51.146Z,36.3
2017-10-15T11:00:52.556Z,35.9
2017-10-15T11:01:53.965Z,35.4
2017-10-15T11:02:55.379Z,35.2
2017-10-15T11:03:56.790Z,35.0
2017-10-15T11:04:58.194Z,34.9
2017-10-15T11:05:59.603Z,34.8
2017-10-15T11:07:01.010Z,34.7
2017-10-15T11:08:02.421Z,35.1
2017-10-15T11:09:03.829Z,35.6
2017-10-15T11:10:05.276Z,36.0
2017-10-15T11:11:06.686Z,36.3
2017-10-15T11:12:08.090Z,36.9
2017-10-15T11:13:09.495Z,37.4
2017-10-15T11:14:10.902Z,37.6
2017-10-15T11:15:12.311Z,37.5
2017-10-15T11:16:13.716Z,37.2
2017-10-15T11:17:15.126Z,37.2
2017-10-15T11:18:16.534Z,37.0
2017-10-15T11:19:17.941Z,36.7
2017-10-15T11:20:19.346Z,36.1
2017-10-15T11:21:20.755Z,35.6
2017-10-15T11:22:22.163Z,35.2
2017-10-15T11:23:23.574Z,34.7
2017-10-15T11:24:24.983Z,34.4
2017-10-15T11:25:26.389Z,34.0
2017-10-15T11:26:27.787Z,33.9
2017-10-15T11:27:29.207Z,33.6
2017-10-15T11:28:30.613Z,33.4
2017-10-15T11:29:32.021Z,33.2
2017-10-15T11:30:33.426Z,33.1
2017-10-15T11:31:34.835Z,32.9
2017-10-15T11:32:36.241Z,32.9
2017-10-15T11:33:37.646Z,32.7
2017-10-15T11:34:39.049Z,32.6
2017-10-15T11:35:40.458Z,32.5
2017-10-15T11:36:41.861Z,32.4
2017-10-15T11:37:43.268Z,32.3
2017-10-15T11:38:44.675Z,32.3
2017-10-15T11:39:46.079Z,32.1
2017-10-15T11:40:47.483Z,32.0
2017-10-15T11:41:48.887Z,31.9
2017-10-15T11:42:50.293Z,31.7
2017-10-15T11:43:51.699Z,31.5
2017-10-15T11:44:53.105Z,31.4
2017-10-15T11:45:54.511Z,31.5
2017-10-15T11:46:55.922Z,31.4
2017-10-15T11:47:57.324Z,31.5
2017-10-15T11:48:58.728Z,31.3
2017-10-15T11:50:00.131Z,31.4
2017-10-15T11:51:01.535Z,31.4
2017-10-15T11:52:02.945Z,31.3
2017-10-15T11:53:04.347Z,31.3
2017-10-15T11:54:05.755Z,31.3
2017-10-15T11:55:07.168Z,31.4
2017-10-15T11:56:08.586Z,31.4
2017-10-15T11:57:09.987Z,31.1
2017-10-15T11:58:11.395Z,31.1
2017-10-15T11:59:12.804Z,31.2
2017-10-15T12:00:14.208Z,31.2
2017-10-15T12:01:15.614Z,31.2
2017-10-15T12:02:17.023Z,31.3
2017-10-15T12:03:18.421Z,31.4
2017-10-15T12:04:19.822Z,31.4
2017-10-15T12:05:21.228Z,31.4
2017-10-15T12:06:22.637Z,31.2
2017-10-15T12:07:24.041Z,31.1
2017-10-15T12:08:25.449Z,31.1
2017-10-15T12:09:26.856Z,31.1
2017-10-15T12:10:28.262Z,31.0
2017-10-15T12:11:29.670Z,31.2
2017-10-15T12:12:31.074Z,31.3
2017-10-15T12:13:32.481Z,31.3
2017-10-15T12:14:33.890Z,31.3
2017-10-15T12:15:35.295Z,31.4
2017-10-15T12:16:36.697Z,31.3
2017-10-15T12:17:38.102Z,31.2
2017-10-15T12:18:39.511Z,31.2
2017-10-15T12:19:40.916Z,31.2
2017-10-15T12:20:42.323Z,31.1
2017-10-15T12:21:43.727Z,31.1
2017-10-15T12:22:45.132Z,31.2
2017-10-15T12:23:46.533Z,31.1
2017-10-15T12:24:47.939Z,30.8
2017-10-15T12:25:49.340Z,30.8
2017-10-15T12:26:50.748Z,30.8
2017-10-15T12:27:52.153Z,30.8
2017-10-15T12:28:53.563Z,31.0
2017-10-15T12:29:54.967Z,31.0
2017-10-15T12:30:56.370Z,31.1
2017-10-15T12:31:57.774Z,30.9
2017-10-15T12:32:59.177Z,30.9
2017-10-15T12:34:00.581Z,31.0
2017-10-15T12:35:01.985Z,31.0
2017-10-15T12:36:03.390Z,31.3
2017-10-15T12:37:04.796Z,31.3
2017-10-15T12:38:06.201Z,31.2
2017-10-15T12:39:07.606Z,31.3
2017-10-15T12:40:09.008Z,31.3
2017-10-15T12:41:10.414Z,31.4
2017-10-15T12:42:11.824Z,31.4
2017-10-15T12:43:13.224Z,31.4
2017-10-15T12:44:14.625Z,31.3
2017-10-15T12:45:16.063Z,31.4
2017-10-15T12:46:17.469Z,31.2
2017-10-15T12:47:18.872Z,31.3
2017-10-15T12:48:20.284Z,31.2
2017-10-15T12:49:21.689Z,31.2
2017-10-15T12:50:23.097Z,31.3
2017-10-15T12:51:24.506Z,31.3
2017-10-15T12:52:25.906Z,31.5
2017-10-15T12:53:27.311Z,31.5
2017-10-15T12:54:28.710Z,31.5
2017-10-15T12:55:30.115Z,31.5
2017-10-15T12:56:31.518Z,31.4
2017-10-15T12:57:32.927Z,31.4
2017-10-15T12:58:34.329Z,31.4
2017-10-15T12:59:35.731Z,31.5
2017-10-15T13:00:37.134Z,31.6
2017-10-15T13:01:38.536Z,31.7
2017-10-15T13:02:39.935Z,31.7
2017-10-15T13:03:41.341Z,31.6
2017-10-15T13:04:42.747Z,31.6
2017-10-15T13:05:44.151Z,31.6
2017-10-15T13:06:45.553Z,31.6
2017-10-15T13:07:46.955Z,31.6
2017-10-15T13:08:48.357Z,31.6
2017-10-15T13:09:49.763Z,31.7
2017-10-15T13:10:51.166Z,31.7
2017-10-15T13:11:52.573Z,31.4
2017-10-15T13:12:53.975Z,31.4
2017-10-15T13:13:55.401Z,31.5
2017-10-15T13:14:56.800Z,31.5
2017-10-15T13:15:58.202Z,31.5
2017-10-15T13:16:59.607Z,31.5
2017-10-15T13:18:01.016Z,31.6
2017-10-15T13:19:02.422Z,31.6
2017-10-15T13:20:03.830Z,31.5
2017-10-15T13:21:05.233Z,31.5
2017-10-15T13:22:06.636Z,31.7
2017-10-15T13:23:08.039Z,31.6
2017-10-15T13:24:09.445Z,31.5
2017-10-15T13:25:10.851Z,31.4
2017-10-15T13:26:12.260Z,31.2
2017-10-15T13:27:13.671Z,30.8
2017-10-15T13:28:15.079Z,30.9
2017-10-15T13:29:16.480Z,31.1
2017-10-15T13:30:17.883Z,31.1
2017-10-15T13:31:19.420Z,31.2
2017-10-15T13:32:20.821Z,31.3
2017-10-15T13:33:22.225Z,31.4
2017-10-15T13:34:23.630Z,31.3
2017-10-15T13:35:25.034Z,31.4
2017-10-15T13:36:26.436Z,31.5
2017-10-15T13:37:27.840Z,31.5